Juatuba, Brazil
Current Conditions -  °F | °C
As of 7:32 PM on Wednesday 17 Dec 2014 (Local Time) from SBPR Reporting Station
Broken Clouds Broken Clouds  
Wind Chill: 81°   Ceiling: 3500
Heat Index: 81°   Visibility: 6mi
Dew Point: 61°   Wind: 10mph
Humidity: 51%   Direction: 110°ESE
Pressure: 29.94"   Gusts: NA
Location:  19.95°S, 44.34°W
Report Text: SBPR 172132Z 11009KT 9999 BKN035 27/16 Q1014
Loading
Personal Weather Stations






























Interactive Weather Map New forecast layout! Learn more

10-Day Weather Forecast

Advertisements
Track Severe Weather on mobile